createdAt,value
2023-05-17T00:02:03.485Z,96508.31
2023-05-17T00:04:30.979Z,96494.75
2023-05-17T00:06:58.558Z,96498.09
2023-05-17T00:09:26.058Z,96507.50
2023-05-17T00:11:53.549Z,96503.56
2023-05-17T00:14:21.028Z,96487.31
2023-05-17T00:16:48.525Z,96500.41
2023-05-17T00:19:17.499Z,96506.41
2023-05-17T00:21:45.230Z,96504.69
2023-05-17T00:24:12.754Z,96508.50
2023-05-17T00:26:40.291Z,96502.31
2023-05-17T00:29:07.797Z,96508.44
2023-05-17T00:31:35.324Z,96506.63
2023-05-17T00:34:02.819Z,96506.94
2023-05-17T00:36:31.778Z,96500.16
2023-05-17T00:38:59.306Z,96507.69
2023-05-17T00:41:26.781Z,96499.25
2023-05-17T00:43:54.439Z,96492.63
2023-05-17T00:46:21.954Z,96507.19
2023-05-17T00:48:49.693Z,96502.00
2023-05-17T00:51:20.100Z,96491.72
2023-05-17T00:53:49.118Z,96501.41
2023-05-17T00:56:16.684Z,96508.38
2023-05-17T00:58:44.659Z,96518.97
2023-05-17T01:01:12.570Z,96512.88
2023-05-17T01:03:40.220Z,96523.84
2023-05-17T01:06:07.967Z,96525.91
2023-05-17T01:08:35.762Z,96522.56
2023-05-17T01:11:15.161Z,96512.63
2023-05-17T01:13:53.105Z,96518.06
2023-05-17T01:16:28.162Z,96523.84
2023-05-17T01:19:02.468Z,96532.50
2023-05-17T01:21:41.500Z,96525.09
2023-05-17T01:24:25.992Z,96511.16
2023-05-17T01:26:55.849Z,96531.81
2023-05-17T01:29:26.687Z,96519.69
2023-05-17T01:31:55.050Z,96536.13
2023-05-17T01:34:26.512Z,96529.22
2023-05-17T01:36:54.450Z,96548.06
2023-05-17T01:39:22.106Z,96546.06
2023-05-17T01:41:59.321Z,96553.22
2023-05-17T01:44:34.264Z,96520.63
2023-05-17T01:47:10.428Z,96559.94
2023-05-17T01:49:40.415Z,96539.69
2023-05-17T01:52:13.078Z,96554.41
2023-05-17T01:54:48.720Z,96552.00
2023-05-17T01:57:21.677Z,96549.34
2023-05-17T01:59:50.778Z,96544.38
2023-05-17T02:02:18.248Z,96558.75
2023-05-17T02:04:45.814Z,96544.63
2023-05-17T02:07:13.422Z,96563.53
2023-05-17T02:09:40.992Z,96552.59
2023-05-17T02:12:09.311Z,96547.22
2023-05-17T02:14:38.130Z,96559.94
2023-05-17T02:17:06.214Z,96554.00
2023-05-17T02:19:34.188Z,96558.13
2023-05-17T02:22:01.892Z,96558.59
2023-05-17T02:24:29.440Z,96566.56
2023-05-17T02:26:56.891Z,96561.19
2023-05-17T02:29:24.511Z,96564.97
2023-05-17T02:31:53.329Z,96555.94
2023-05-17T02:34:20.803Z,96568.94
2023-05-17T02:36:48.423Z,96545.34
2023-05-17T02:39:15.967Z,96545.34
2023-05-17T02:41:43.428Z,96568.53
2023-05-17T02:44:10.948Z,96552.00
2023-05-17T02:46:38.734Z,96576.47
2023-05-17T02:49:07.545Z,96566.69
2023-05-17T02:51:35.036Z,96562.97
2023-05-17T02:54:02.768Z,96575.13
2023-05-17T02:56:30.834Z,96573.16
2023-05-17T02:59:01.148Z,96578.31
2023-05-17T03:01:28.699Z,96562.53
2023-05-17T03:03:56.280Z,96562.31
2023-05-17T03:06:25.381Z,96571.91
2023-05-17T03:08:52.820Z,96552.34
2023-05-17T03:11:22.661Z,96566.91
2023-05-17T03:13:51.465Z,96569.47
2023-05-17T03:16:19.369Z,96564.94
2023-05-17T03:18:46.946Z,96563.94
2023-05-17T03:21:14.595Z,96565.56
2023-05-17T03:23:43.376Z,96568.56
2023-05-17T03:26:10.881Z,96559.44
2023-05-17T03:28:38.366Z,96574.78
2023-05-17T03:31:06.288Z,96574.78
2023-05-17T03:33:33.925Z,96567.97
2023-05-17T03:36:01.544Z,96575.38
2023-05-17T03:38:32.096Z,96581.75
2023-05-17T03:41:01.046Z,96567.66
2023-05-17T03:43:28.595Z,96584.09
2023-05-17T03:45:56.069Z,96588.28
2023-05-17T03:48:23.616Z,96580.91
2023-05-17T03:50:51.554Z,96591.88
2023-05-17T03:53:19.003Z,96594.09
2023-05-17T03:55:46.557Z,96591.69
2023-05-17T03:58:15.759Z,96595.88
2023-05-17T04:00:43.284Z,96603.03
2023-05-17T04:03:12.746Z,96604.03
2023-05-17T04:05:40.903Z,96589.34
2023-05-17T04:08:08.383Z,96602.44
2023-05-17T04:10:35.823Z,96594.09
2023-05-17T04:13:03.299Z,96611.22
2023-05-17T04:15:32.137Z,96599.31
2023-05-17T04:17:59.680Z,96618.22
2023-05-17T04:20:27.301Z,96626.97
2023-05-17T04:22:54.794Z,96615.84
2023-05-17T04:25:23.923Z,96617.66
2023-05-17T04:27:51.588Z,96607.69
2023-05-17T04:30:21.348Z,96622.19
2023-05-17T04:32:51.237Z,96620.41
2023-05-17T04:35:18.707Z,96628.34
2023-05-17T04:37:46.243Z,96635.72
2023-05-17T04:40:14.769Z,96630.53
2023-05-17T04:42:42.294Z,96637.72
2023-05-17T04:45:10.492Z,96624.75
2023-05-17T04:47:38.658Z,96633.72
2023-05-17T04:50:08.108Z,96637.72
2023-05-17T04:52:35.584Z,96644.88
2023-05-17T04:55:03.305Z,96633.91
2023-05-17T04:57:30.757Z,96653.78
2023-05-17T04:59:58.279Z,96640.31
2023-05-17T05:02:25.830Z,96650.66
2023-05-17T05:04:53.342Z,96646.25
2023-05-17T05:07:22.163Z,96649.03
2023-05-17T05:09:49.613Z,96640.72
2023-05-17T05:12:17.074Z,96650.84
2023-05-17T05:14:44.527Z,96651.44
2023-05-17T05:17:11.989Z,96663.75
2023-05-17T05:19:39.522Z,96667.78
2023-05-17T05:22:07.032Z,96674.94
2023-05-17T05:24:36.051Z,96677.66
2023-05-17T05:27:05.003Z,96657.59
2023-05-17T05:29:34.355Z,96663.09
2023-05-17T05:32:02.272Z,96669.88
2023-05-17T05:34:31.507Z,96660.91
2023-05-17T05:36:58.937Z,96674.66
2023-05-17T05:39:30.341Z,96673.06
2023-05-17T05:41:59.141Z,96681.59
2023-05-17T05:44:26.565Z,96683.00
2023-05-17T05:46:54.031Z,96679.59
2023-05-17T05:49:21.484Z,96686.78
2023-05-17T05:51:48.986Z,96677.59
2023-05-17T05:54:17.025Z,96631.66
2023-05-17T05:56:44.489Z,96679.72
2023-05-17T05:59:13.260Z,96675.06
2023-05-17T06:01:41.237Z,96690.03
2023-05-17T06:04:08.734Z,96686.38
2023-05-17T06:06:36.941Z,96688.63
2023-05-17T06:09:06.920Z,96695.63
2023-05-17T06:11:34.387Z,96691.34
2023-05-17T06:14:01.879Z,96702.47
2023-05-17T06:16:31.012Z,96699.25
2023-05-17T06:18:58.531Z,96695.66
2023-05-17T06:21:26.068Z,96700.03
2023-05-17T06:23:53.573Z,96700.94
2023-05-17T06:26:21.238Z,96698.09
2023-05-17T06:28:48.684Z,96696.44
2023-05-17T06:31:16.342Z,96699.53
2023-05-17T06:33:45.313Z,96697.38
2023-05-17T06:36:12.807Z,96700.88
2023-05-17T06:38:40.275Z,96701.63
2023-05-17T06:41:07.728Z,96698.34
2023-05-17T06:43:35.720Z,96708.94
2023-05-17T06:46:05.050Z,96713.25
2023-05-17T06:48:32.708Z,96724.34
2023-05-17T06:51:01.667Z,96703.09
2023-05-17T06:53:29.130Z,96712.63
2023-05-17T06:55:56.584Z,96717.38
2023-05-17T06:58:24.158Z,96712.59
2023-05-17T07:00:51.582Z,96714.94
2023-05-17T07:03:19.098Z,96695.53
2023-05-17T07:05:46.708Z,96711.38
2023-05-17T07:08:15.989Z,96705.75
2023-05-17T07:10:43.453Z,96708.66
2023-05-17T07:13:10.981Z,96714.22
2023-05-17T07:15:38.773Z,96725.63
2023-05-17T07:18:06.441Z,96725.47
2023-05-17T07:20:34.103Z,96732.94
2023-05-17T07:23:04.371Z,96730.63
2023-05-17T07:25:33.199Z,96721.31
2023-05-17T07:28:00.686Z,96725.59
2023-05-17T07:30:28.164Z,96735.63
2023-05-17T07:32:55.710Z,96737.69
2023-05-17T07:35:23.243Z,96741.03
2023-05-17T07:37:50.952Z,96726.19
2023-05-17T07:40:18.681Z,96735.06
2023-05-17T07:42:47.470Z,96740.25
2023-05-17T07:45:15.210Z,96730.59
2023-05-17T07:47:42.908Z,96719.84
2023-05-17T07:50:11.572Z,96713.84
2023-05-17T07:52:39.222Z,96745.06
2023-05-17T07:55:07.925Z,96726.34
2023-05-17T07:57:36.707Z,96720.91
2023-05-17T08:00:08.747Z,96731.13
2023-05-17T08:02:36.452Z,96747.22
2023-05-17T08:05:04.009Z,96767.78
2023-05-17T08:07:31.495Z,96761.19
2023-05-17T08:09:58.971Z,96761.09
2023-05-17T08:12:26.520Z,96756.34
2023-05-17T08:14:53.994Z,96769.75
2023-05-17T08:17:23.170Z,96767.41
2023-05-17T08:19:52.770Z,96759.94
2023-05-17T08:22:20.401Z,96756.28
2023-05-17T08:24:47.968Z,96767.19
2023-05-17T08:27:15.870Z,96772.03
2023-05-17T08:29:43.346Z,96756.84
2023-05-17T08:32:10.922Z,96760.91
2023-05-17T08:34:42.436Z,96770.19
2023-05-17T08:37:09.967Z,96768.53
2023-05-17T08:39:37.536Z,96769.31
2023-05-17T08:42:08.754Z,96766.03
2023-05-17T08:44:38.587Z,96752.06
2023-05-17T08:47:07.474Z,96766.72
2023-05-17T08:49:37.961Z,96769.03
2023-05-17T08:52:09.958Z,96762.19
2023-05-17T08:54:37.583Z,96773.88
2023-05-17T08:57:07.348Z,96760.28
2023-05-17T08:59:35.871Z,96772.47
2023-05-17T09:02:05.975Z,96756.09
2023-05-17T09:04:34.084Z,96764.63
2023-05-17T09:07:01.691Z,96747.06
2023-05-17T09:09:30.544Z,96759.38
2023-05-17T09:11:58.250Z,96777.69
2023-05-17T09:14:25.881Z,96765.50
2023-05-17T09:16:57.909Z,96768.06
2023-05-17T09:19:25.475Z,96785.41
2023-05-17T09:21:55.044Z,96767.91
2023-05-17T09:24:30.825Z,96769.81
2023-05-17T09:27:03.262Z,96770.41
2023-05-17T09:29:33.052Z,96776.66
2023-05-17T09:32:14.559Z,96776.63
2023-05-17T09:34:42.205Z,96775.19
2023-05-17T09:37:19.985Z,96784.22
2023-05-17T09:39:49.165Z,96763.66
2023-05-17T09:42:17.631Z,96791.59
2023-05-17T09:44:50.852Z,96770.63
2023-05-17T09:47:25.714Z,96767.00
2023-05-17T09:49:53.917Z,96785.22
2023-05-17T09:52:22.205Z,96769.38
2023-05-17T09:54:55.185Z,96783.66
2023-05-17T09:57:23.047Z,96779.22
2023-05-17T09:59:51.345Z,96780.94
2023-05-17T10:02:22.612Z,96790.34
2023-05-17T10:04:51.475Z,96780.59
2023-05-17T10:07:21.382Z,96765.34
2023-05-17T10:09:50.443Z,96751.19
2023-05-17T10:12:23.701Z,96760.53
2023-05-17T10:14:55.790Z,96757.81
2023-05-17T10:17:24.330Z,96765.41
2023-05-17T10:19:52.383Z,96764.97
2023-05-17T10:22:23.739Z,96765.72
2023-05-17T10:24:52.415Z,96773.47
2023-05-17T10:27:21.863Z,96774.75
2023-05-17T10:29:50.911Z,96770.53
2023-05-17T10:32:22.873Z,96779.50
2023-05-17T10:35:01.480Z,96737.94
2023-05-17T10:37:37.855Z,96772.19
2023-05-17T10:40:06.390Z,96773.00
2023-05-17T10:42:35.817Z,96774.56
2023-05-17T10:45:04.156Z,96748.41
2023-05-17T10:47:35.539Z,96746.25
2023-05-17T10:50:03.541Z,96748.31
2023-05-17T10:52:31.750Z,96732.88
2023-05-17T10:55:00.549Z,96769.81
2023-05-17T11:00:12.226Z,96748.38
2023-05-17T11:02:42.352Z,96773.94
2023-05-17T11:05:24.466Z,96757.94
2023-05-17T11:07:52.209Z,96766.53
2023-05-17T11:10:22.128Z,96753.19
2023-05-17T11:12:55.351Z,96763.34
2023-05-17T11:15:26.305Z,96765.03
2023-05-17T11:18:02.316Z,96742.75
2023-05-17T11:20:35.043Z,96753.72
2023-05-17T11:23:05.315Z,96757.94
2023-05-17T11:25:35.662Z,96697.09
2023-05-17T11:28:09.780Z,96763.00
2023-05-17T11:30:42.432Z,96748.56
2023-05-17T11:33:20.392Z,96753.34
2023-05-17T11:35:57.378Z,96757.50
2023-05-17T11:38:30.343Z,96728.88
2023-05-17T11:40:58.864Z,96721.44
2023-05-17T11:43:31.179Z,96750.72
2023-05-17T11:46:02.549Z,96748.69
2023-05-17T11:48:34.054Z,96756.28
2023-05-17T11:51:02.484Z,96741.44
2023-05-17T11:53:34.838Z,96747.34
2023-05-17T11:56:05.150Z,96725.06
2023-05-17T11:58:34.919Z,96699.00
2023-05-17T12:01:04.043Z,96738.00
2023-05-17T12:03:33.496Z,96725.16
2023-05-17T12:06:07.100Z,96671.53
2023-05-17T12:08:37.275Z,96725.81
2023-05-17T12:11:06.301Z,96725.53
2023-05-17T12:13:36.762Z,96695.69
2023-05-17T12:16:09.945Z,96691.53
2023-05-17T12:18:39.110Z,96704.19
2023-05-17T12:21:08.179Z,96734.16
2023-05-17T12:23:38.270Z,96735.00
2023-05-17T12:26:10.237Z,96722.16
2023-05-17T12:28:41.436Z,96717.72
2023-05-17T12:31:12.188Z,96704.44
2023-05-17T12:33:42.667Z,96710.53
2023-05-17T12:36:12.240Z,96734.50
2023-05-17T12:38:42.220Z,96661.00
2023-05-17T12:41:12.564Z,96719.97
2023-05-17T12:43:42.597Z,96664.25
2023-05-17T12:46:13.553Z,96702.69
2023-05-17T12:48:43.495Z,96715.56
2023-05-17T12:51:12.923Z,96690.94
2023-05-17T12:53:42.806Z,96722.66
2023-05-17T12:56:17.118Z,96660.56
2023-05-17T12:59:05.600Z,96724.41
2023-05-17T13:01:37.176Z,96721.97
2023-05-17T13:04:05.736Z,96693.44
2023-05-17T13:06:45.303Z,96676.03
2023-05-17T13:09:13.351Z,96704.56
2023-05-17T13:11:42.189Z,96731.91
2023-05-17T13:14:12.408Z,96721.72
2023-05-17T13:16:40.969Z,96722.25
2023-05-17T13:19:17.514Z,96724.13
2023-05-17T13:21:45.287Z,96729.41
2023-05-17T13:24:12.719Z,96700.97
2023-05-17T13:26:40.397Z,96717.47
2023-05-17T13:29:07.894Z,96713.06
2023-05-17T13:31:36.763Z,96677.03
2023-05-17T13:34:04.434Z,96716.44
2023-05-17T13:36:31.981Z,96730.25
2023-05-17T13:39:01.773Z,96731.72
2023-05-17T13:41:29.229Z,96724.06
2023-05-17T13:43:57.239Z,96719.50
2023-05-17T13:46:24.716Z,96698.47
2023-05-17T13:48:54.068Z,96723.13
2023-05-17T13:51:21.606Z,96710.06
2023-05-17T13:53:49.481Z,96684.09
2023-05-17T13:56:17.265Z,96701.50
2023-05-17T13:58:45.068Z,96713.59
2023-05-17T14:01:12.703Z,96722.56
2023-05-17T14:03:40.369Z,96678.34
2023-05-17T14:06:09.404Z,96696.34
2023-05-17T14:08:36.981Z,96717.91
2023-05-17T14:11:04.657Z,96702.19
2023-05-17T14:13:32.376Z,96686.19
2023-05-17T14:16:00.073Z,96709.28
2023-05-17T14:18:28.120Z,96710.69
2023-05-17T14:20:56.030Z,96684.94
2023-05-17T14:23:25.198Z,96695.94
2023-05-17T14:25:52.820Z,96702.38
2023-05-17T14:28:20.553Z,96699.25
2023-05-17T14:30:48.361Z,96686.56
2023-05-17T14:33:16.070Z,96708.59
2023-05-17T14:35:43.798Z,96688.25
2023-05-17T14:38:11.569Z,96682.84
2023-05-17T14:40:40.684Z,96697.41
2023-05-17T14:43:08.379Z,96685.19
2023-05-17T14:45:36.062Z,96644.69
2023-05-17T14:48:03.765Z,96698.16
2023-05-17T14:50:32.822Z,96690.06
2023-05-17T14:53:00.541Z,96675.94
2023-05-17T14:55:28.491Z,96675.31
2023-05-17T14:57:58.481Z,96695.00
2023-05-17T15:00:27.058Z,96689.06
2023-05-17T15:02:54.831Z,96683.44
2023-05-17T15:05:22.665Z,96697.81
2023-05-17T15:07:50.419Z,96663.69
2023-05-17T15:10:18.061Z,96696.03
2023-05-17T15:12:45.746Z,96688.25
2023-05-17T15:15:15.205Z,96665.63
2023-05-17T15:17:43.071Z,96661.50
2023-05-17T15:20:11.861Z,96668.09
2023-05-17T15:22:39.608Z,96699.19
2023-05-17T15:25:07.954Z,96683.59
2023-05-17T15:27:35.734Z,96703.41
2023-05-17T15:30:03.544Z,96675.50
2023-05-17T15:32:34.679Z,96697.66
2023-05-17T15:35:02.371Z,96695.31
2023-05-17T15:37:30.056Z,96686.44
2023-05-17T15:39:57.663Z,96674.75
2023-05-17T15:42:25.317Z,96683.28
2023-05-17T15:44:52.889Z,96673.47
2023-05-17T15:47:21.984Z,96702.78
2023-05-17T15:49:53.053Z,96697.63
2023-05-17T15:52:20.697Z,96707.63
2023-05-17T15:54:50.277Z,96675.47
2023-05-17T15:57:18.874Z,96674.81
2023-05-17T15:59:46.731Z,96663.25
2023-05-17T16:02:14.367Z,96697.63
2023-05-17T16:04:42.054Z,96683.16
2023-05-17T16:07:11.121Z,96676.34
2023-05-17T16:09:38.874Z,96685.69
2023-05-17T16:12:06.865Z,96694.72
2023-05-17T16:14:34.469Z,96690.34
2023-05-17T16:17:05.543Z,96689.44
2023-05-17T16:19:34.128Z,96691.09
2023-05-17T16:22:02.830Z,96655.84
2023-05-17T16:24:31.964Z,96685.44
2023-05-17T16:27:00.136Z,96686.56
2023-05-17T16:29:27.793Z,96685.06
2023-05-17T16:31:55.454Z,96706.81
2023-05-17T16:34:24.568Z,96672.78
2023-05-17T16:36:52.210Z,96696.59
2023-05-17T16:39:19.633Z,96693.59
2023-05-17T16:41:49.416Z,96699.81
2023-05-17T16:44:16.874Z,96702.41
2023-05-17T16:46:44.363Z,96691.47
2023-05-17T16:49:11.815Z,96704.34
2023-05-17T16:51:39.448Z,96702.06
2023-05-17T16:54:06.987Z,96691.13
2023-05-17T16:56:34.475Z,96691.22
2023-05-17T16:59:03.542Z,96699.69
2023-05-17T17:01:31.056Z,96694.91
2023-05-17T17:03:58.551Z,96701.06
2023-05-17T17:06:26.017Z,96700.00
2023-05-17T17:08:53.459Z,96713.13
2023-05-17T17:11:22.560Z,96703.25
2023-05-17T17:13:50.823Z,96703.59
2023-05-17T17:16:20.291Z,96708.94
2023-05-17T17:18:49.410Z,96704.34
2023-05-17T17:21:16.935Z,96698.97
2023-05-17T17:23:44.736Z,96704.81
2023-05-17T17:26:12.582Z,96702.59
2023-05-17T17:28:40.104Z,96714.06
2023-05-17T17:31:07.755Z,96711.69
2023-05-17T17:33:36.742Z,96712.75
2023-05-17T17:36:04.350Z,96717.88
2023-05-17T17:38:31.873Z,96693.53
2023-05-17T17:40:59.354Z,96713.03
2023-05-17T17:43:26.836Z,96722.44
2023-05-17T17:45:54.302Z,96718.19
2023-05-17T17:48:21.762Z,96717.78
2023-05-17T17:50:50.608Z,96726.13
2023-05-17T17:53:18.113Z,96711.53
2023-05-17T17:55:45.583Z,96727.16
2023-05-17T17:58:13.068Z,96730.63
2023-05-17T18:00:41.306Z,96724.97
2023-05-17T18:03:08.864Z,96720.22
2023-05-17T18:05:36.419Z,96719.63
2023-05-17T18:08:05.745Z,96723.41
2023-05-17T18:10:33.357Z,96720.56
2023-05-17T18:13:00.878Z,96718.75
2023-05-17T18:15:28.314Z,96726.72
2023-05-17T18:17:56.892Z,96720.78
2023-05-17T18:20:26.102Z,96717.31
2023-05-17T18:22:53.591Z,96729.31
2023-05-17T18:25:22.603Z,96727.13
2023-05-17T18:27:50.086Z,96729.44
2023-05-17T18:30:18.320Z,96730.38
2023-05-17T18:32:46.223Z,96729.00
2023-05-17T18:35:13.934Z,96716.19
2023-05-17T18:37:41.459Z,96724.94
2023-05-17T18:40:09.957Z,96727.91
2023-05-17T18:42:39.087Z,96728.25
2023-05-17T18:45:07.937Z,96726.19
2023-05-17T18:47:35.707Z,96730.59
2023-05-17T18:50:03.368Z,96728.47
2023-05-17T18:52:31.440Z,96728.22
2023-05-17T18:54:59.033Z,96693.09
2023-05-17T18:57:26.743Z,96714.25
2023-05-17T18:59:55.807Z,96723.66
2023-05-17T19:02:23.537Z,96726.06
2023-05-17T19:04:51.378Z,96723.66
2023-05-17T19:07:19.145Z,96718.31
2023-05-17T19:09:46.814Z,96715.56
2023-05-17T19:12:14.938Z,96726.63
2023-05-17T19:14:42.529Z,96725.94
2023-05-17T19:17:11.641Z,96727.75
2023-05-17T19:19:39.223Z,96713.34
2023-05-17T19:22:06.961Z,96736.66
2023-05-17T19:24:35.316Z,96729.44
2023-05-17T19:27:03.075Z,96705.88
2023-05-17T19:29:32.554Z,96692.22
2023-05-17T19:32:00.300Z,96720.09
2023-05-17T19:34:29.366Z,96689.22
2023-05-17T19:36:57.359Z,96724.94
2023-05-17T19:39:25.041Z,96745.69
2023-05-17T19:41:52.674Z,96747.03
2023-05-17T19:44:20.324Z,96752.66
2023-05-17T19:46:48.026Z,96730.78
2023-05-17T19:49:16.438Z,96741.91
2023-05-17T19:51:46.140Z,96751.50
2023-05-17T19:54:14.036Z,96743.97
2023-05-17T19:56:41.883Z,96744.78
2023-05-17T19:59:09.564Z,96743.03
2023-05-17T20:01:37.396Z,96725.44
2023-05-17T20:04:05.759Z,96745.38
2023-05-17T20:06:33.576Z,96712.06
2023-05-17T20:09:02.750Z,96761.59
2023-05-17T20:11:30.523Z,96755.41
2023-05-17T20:13:58.270Z,96761.28
2023-05-17T20:16:28.052Z,96740.69
2023-05-17T20:18:58.012Z,96744.91
2023-05-17T20:21:26.459Z,96740.72
2023-05-17T20:24:00.905Z,96749.81
2023-05-17T20:26:32.032Z,96762.19
2023-05-17T20:29:00.009Z,96736.53
2023-05-17T20:31:28.371Z,96703.34
2023-05-17T20:33:56.171Z,96740.78
2023-05-17T20:36:23.886Z,96692.91
2023-05-17T20:38:51.647Z,96738.72
2023-05-17T20:41:19.283Z,96722.03
2023-05-17T20:43:49.582Z,96722.59
2023-05-17T20:46:18.322Z,96752.59
2023-05-17T20:48:47.648Z,96761.38
2023-05-17T20:51:15.844Z,96767.91
2023-05-17T20:53:43.449Z,96767.09
2023-05-17T20:56:11.578Z,96764.03
2023-05-17T20:58:39.159Z,96751.66
2023-05-17T21:01:08.847Z,96758.44
2023-05-17T21:03:39.803Z,96731.41
2023-05-17T21:06:08.194Z,96747.50
2023-05-17T21:08:36.920Z,96775.19
2023-05-17T21:11:04.445Z,96762.63
2023-05-17T21:13:32.080Z,96759.63
2023-05-17T21:15:59.787Z,96780.16
2023-05-17T21:18:28.913Z,96782.22
2023-05-17T21:20:56.624Z,96782.97
2023-05-17T21:23:24.448Z,96777.59
2023-05-17T21:25:52.025Z,96759.94
2023-05-17T21:28:19.609Z,96757.34
2023-05-17T21:30:47.288Z,96753.81
2023-05-17T21:33:14.897Z,96778.16
2023-05-17T21:35:43.959Z,96776.31
2023-05-17T21:38:11.680Z,96759.59
2023-05-17T21:40:39.461Z,96740.19
2023-05-17T21:43:07.754Z,96769.47
2023-05-17T21:45:35.614Z,96761.91
2023-05-17T21:48:03.742Z,96754.56
2023-05-17T21:50:31.996Z,96776.81
2023-05-17T21:53:01.479Z,96749.97
2023-05-17T21:55:41.036Z,96713.22
2023-05-17T21:58:19.506Z,96738.31
2023-05-17T22:00:47.301Z,96727.59
2023-05-17T22:03:15.048Z,96705.34
2023-05-17T22:05:42.704Z,96759.88
2023-05-17T22:08:11.681Z,96772.03
2023-05-17T22:10:40.519Z,96774.03
2023-05-17T22:13:12.282Z,96739.78
2023-05-17T22:15:41.450Z,96758.69
2023-05-17T22:18:12.357Z,96735.00
2023-05-17T22:20:40.381Z,96696.81
2023-05-17T22:23:08.033Z,96751.09
2023-05-17T22:25:36.970Z,96772.78
2023-05-17T22:28:04.789Z,96766.41
2023-05-17T22:30:32.926Z,96754.84
2023-05-17T22:33:01.175Z,96767.56
2023-05-17T22:35:29.014Z,96741.88
2023-05-17T22:37:56.720Z,96766.75
2023-05-17T22:40:24.401Z,96767.13
2023-05-17T22:42:54.187Z,96769.31
2023-05-17T22:45:21.768Z,96756.75
2023-05-17T22:47:50.604Z,96755.00
2023-05-17T22:50:19.140Z,96757.63
2023-05-17T22:52:47.054Z,96740.09
2023-05-17T22:55:14.650Z,96756.03
2023-05-17T22:57:42.434Z,96728.09
2023-05-17T23:00:12.437Z,96746.78
2023-05-17T23:02:40.168Z,96745.50
2023-05-17T23:05:08.272Z,96755.81
2023-05-17T23:07:38.172Z,96756.50
2023-05-17T23:10:06.815Z,96721.75
2023-05-17T23:12:35.907Z,96754.31
2023-05-17T23:15:03.759Z,96757.72
2023-05-17T23:17:33.229Z,96761.69
2023-05-17T23:20:06.986Z,96753.84
2023-05-17T23:22:34.792Z,96759.75
2023-05-17T23:25:03.433Z,96754.59
2023-05-17T23:27:31.752Z,96727.03
2023-05-17T23:30:01.030Z,96736.28
2023-05-17T23:32:32.270Z,96770.28
2023-05-17T23:35:03.929Z,96777.56
2023-05-17T23:37:31.916Z,96749.25
2023-05-17T23:39:59.887Z,96738.00
2023-05-17T23:42:29.333Z,96707.47
2023-05-17T23:44:57.032Z,96766.44
2023-05-17T23:47:24.812Z,96759.69
2023-05-17T23:49:52.672Z,96761.28
2023-05-17T23:52:23.515Z,96767.44
2023-05-17T23:54:51.157Z,96760.00
2023-05-17T23:57:18.830Z,96766.94
2023-05-17T23:59:46.509Z,96764.72
